createdAt,value
2017-07-17T00:00:17.539Z,91.04
2017-07-17T00:00:58.428Z,91.04
2017-07-17T00:01:39.320Z,91.33
2017-07-17T00:02:20.198Z,91.33
2017-07-17T00:03:01.095Z,91.13
2017-07-17T00:03:42.012Z,91.33
2017-07-17T00:04:22.902Z,91.13
2017-07-17T00:05:03.786Z,90.94
2017-07-17T00:05:44.688Z,91.04
2017-07-17T00:06:25.578Z,90.94
2017-07-17T00:07:06.470Z,91.13
2017-07-17T00:07:47.371Z,91.04
2017-07-17T00:08:28.286Z,90.56
2017-07-17T00:09:09.163Z,90.66
2017-07-17T00:09:50.053Z,90.66
2017-07-17T00:10:30.938Z,90.75
2017-07-17T00:11:11.849Z,91.04
2017-07-17T00:11:52.723Z,91.04
2017-07-17T00:12:33.617Z,90.84
2017-07-17T00:13:14.510Z,90.84
2017-07-17T00:13:55.394Z,89.89
2017-07-17T00:14:36.288Z,90.27
2017-07-17T00:15:17.181Z,90.94
2017-07-17T00:15:58.072Z,91.04
2017-07-17T00:16:38.946Z,90.56
2017-07-17T00:17:19.838Z,90.84
2017-07-17T00:18:00.741Z,90.75
2017-07-17T00:18:41.626Z,90.7
2017-07-17T00:19:22.513Z,90.7
2017-07-17T00:20:03.408Z,90.8
2017-07-17T00:20:44.292Z,90.8
2017-07-17T00:21:25.179Z,91.08
2017-07-17T00:22:06.103Z,90.8
2017-07-17T00:22:46.983Z,90.6
2017-07-17T00:23:27.885Z,90.08
2017-07-17T00:24:08.768Z,90.8
2017-07-17T00:24:49.648Z,90.7
2017-07-17T00:25:30.541Z,89.98
2017-07-17T00:26:11.443Z,90.08
2017-07-17T00:26:52.330Z,90.37
2017-07-17T00:27:33.211Z,90.27
2017-07-17T00:28:14.101Z,89.98
2017-07-17T00:28:54.984Z,89.83
2017-07-17T00:29:35.870Z,89.89
2017-07-17T00:30:16.776Z,89.69
2017-07-17T00:30:57.654Z,89.89
2017-07-17T00:31:38.533Z,89.69
2017-07-17T00:32:19.453Z,89.31
2017-07-17T00:33:00.336Z,89.89
2017-07-17T00:33:41.217Z,90.03
2017-07-17T00:34:22.106Z,89.83
2017-07-17T00:35:02.997Z,89.54
2017-07-17T00:35:43.879Z,89.93
2017-07-17T00:36:24.769Z,89.45
2017-07-17T00:37:05.655Z,89.69
2017-07-17T00:37:46.542Z,89.98
2017-07-17T00:38:27.419Z,89.69
2017-07-17T00:39:08.310Z,89.6
2017-07-17T00:39:49.196Z,89.89
2017-07-17T00:40:30.082Z,90.08
2017-07-17T00:41:10.982Z,89.69
2017-07-17T00:41:51.875Z,89.83
2017-07-17T00:42:32.769Z,89.74
2017-07-17T00:43:13.662Z,90.03
2017-07-17T00:43:54.575Z,89.98
2017-07-17T00:44:35.453Z,89.79
2017-07-17T00:45:16.342Z,89.74
2017-07-17T00:45:57.235Z,89.74
2017-07-17T00:46:38.124Z,90.12
2017-07-17T00:47:19.009Z,89.83
2017-07-17T00:47:59.905Z,89.83
2017-07-17T00:48:40.787Z,89.74
2017-07-17T00:49:21.682Z,89.74
2017-07-17T00:50:02.575Z,89.64
2017-07-17T00:50:43.463Z,89.83
2017-07-17T00:51:24.367Z,89.74
2017-07-17T00:52:05.249Z,89.93
2017-07-17T00:52:46.145Z,90.12
2017-07-17T00:53:27.068Z,89.74
2017-07-17T00:54:07.970Z,89.64
2017-07-17T00:54:48.860Z,89.74
2017-07-17T00:55:29.759Z,89.89
2017-07-17T00:56:10.647Z,89.93
2017-07-17T00:56:51.534Z,89.22
2017-07-17T00:57:32.421Z,89.89
2017-07-17T00:58:13.327Z,89.93
2017-07-17T00:58:54.235Z,89.74
2017-07-17T00:59:35.119Z,89.64
2017-07-17T01:00:16.027Z,89.93
2017-07-17T01:00:56.913Z,90.51
2017-07-17T01:01:37.806Z,90.12
2017-07-17T01:02:18.694Z,90.12
2017-07-17T01:02:59.587Z,89.89
2017-07-17T01:03:40.471Z,90.08
2017-07-17T01:04:21.358Z,89.6
2017-07-17T01:05:02.267Z,89.64
2017-07-17T01:05:43.170Z,90.37
2017-07-17T01:06:24.064Z,90.12
2017-07-17T01:07:04.946Z,90.12
2017-07-17T01:07:45.848Z,90.22
2017-07-17T01:08:26.734Z,89.45
2017-07-17T01:09:07.638Z,89.89
2017-07-17T01:09:48.519Z,90.37
2017-07-17T01:10:29.418Z,90.37
2017-07-17T01:11:10.302Z,90.08
2017-07-17T01:11:51.217Z,90.56
2017-07-17T01:12:32.103Z,90.27
2017-07-17T01:13:12.989Z,90.27
2017-07-17T01:13:53.873Z,90.27
2017-07-17T01:15:33.300Z,90.27
2017-07-17T01:16:14.181Z,90.17
2017-07-17T01:16:55.070Z,90.17
2017-07-17T01:17:35.955Z,90.27
2017-07-17T01:18:16.846Z,90.08
2017-07-17T01:18:57.739Z,90.31
2017-07-17T01:19:38.640Z,90.6
2017-07-17T01:20:19.526Z,90.66
2017-07-17T01:21:00.418Z,90.94
2017-07-17T01:21:41.305Z,90.84
2017-07-17T01:22:22.192Z,90.84
2017-07-17T01:23:03.082Z,91.04
2017-07-17T01:23:43.977Z,90.84
2017-07-17T01:24:24.861Z,90.94
2017-07-17T01:25:05.747Z,90.94
2017-07-17T01:25:46.636Z,90.75
2017-07-17T01:26:27.534Z,91.23
2017-07-17T01:27:08.417Z,91.23
2017-07-17T01:27:49.302Z,91.13
2017-07-17T01:28:30.191Z,90.94
2017-07-17T01:29:11.082Z,91.04
2017-07-17T01:29:52.007Z,90.75
2017-07-17T01:30:32.894Z,90.84
2017-07-17T01:31:13.785Z,90.66
2017-07-17T01:31:54.677Z,90.94
2017-07-17T01:32:35.566Z,91.13
2017-07-17T01:33:16.472Z,90.99
2017-07-17T01:33:57.363Z,90.94
2017-07-17T01:34:38.248Z,90.99
2017-07-17T01:35:19.136Z,90.94
2017-07-17T01:36:00.022Z,91.04
2017-07-17T01:36:40.910Z,90.8
2017-07-17T01:37:21.803Z,90.99
2017-07-17T01:38:02.696Z,90.94
2017-07-17T01:38:43.586Z,90.75
2017-07-17T01:39:24.469Z,91.13
2017-07-17T01:40:05.358Z,91.23
2017-07-17T01:40:46.249Z,90.84
2017-07-17T01:41:27.146Z,90.7
2017-07-17T01:42:08.034Z,90.94
2017-07-17T01:42:48.936Z,91.04
2017-07-17T01:43:29.834Z,91.23
2017-07-17T01:44:10.710Z,91.13
2017-07-17T01:44:51.608Z,91.13
2017-07-17T01:45:32.506Z,90.94
2017-07-17T01:46:13.406Z,90.51
2017-07-17T01:46:54.300Z,91.33
2017-07-17T01:47:35.186Z,91.71
2017-07-17T01:48:16.083Z,91.52
2017-07-17T01:48:56.971Z,91.33
2017-07-17T01:49:37.868Z,90.94
2017-07-17T01:50:18.753Z,91.13
2017-07-17T01:50:59.644Z,91.42
2017-07-17T01:51:40.542Z,90.84
2017-07-17T01:52:21.426Z,90.66
2017-07-17T01:53:02.318Z,90.75
2017-07-17T01:53:43.228Z,90.94
2017-07-17T01:54:24.120Z,91.04
2017-07-17T01:55:05.018Z,90.94
2017-07-17T01:55:45.905Z,90.46
2017-07-17T01:56:26.801Z,90.84
2017-07-17T01:57:07.692Z,90.75
2017-07-17T01:57:48.583Z,90.46
2017-07-17T01:58:29.473Z,90.84
2017-07-17T01:59:10.370Z,91.04
2017-07-17T01:59:51.256Z,91.13
2017-07-17T02:00:32.151Z,92
2017-07-17T02:01:13.057Z,90.94
2017-07-17T02:01:53.990Z,91.33
2017-07-17T02:02:34.842Z,91.71
2017-07-17T02:03:15.726Z,91.71
2017-07-17T02:03:56.622Z,91.61
2017-07-17T02:04:37.509Z,91.13
2017-07-17T02:05:18.398Z,91.13
2017-07-17T02:05:59.284Z,90.9
2017-07-17T02:06:40.175Z,91.33
2017-07-17T02:07:21.072Z,90.9
2017-07-17T02:08:01.963Z,91.23
2017-07-17T02:08:42.854Z,91.13
2017-07-17T02:09:23.740Z,91.33
2017-07-17T02:10:04.629Z,91.13
2017-07-17T02:10:45.518Z,90.99
2017-07-17T02:11:26.398Z,91.13
2017-07-17T02:12:07.296Z,91.23
2017-07-17T02:12:48.211Z,91.42
2017-07-17T02:13:29.097Z,91.23
2017-07-17T02:14:09.987Z,91.33
2017-07-17T02:14:50.866Z,91.13
2017-07-17T02:15:31.757Z,90.94
2017-07-17T02:16:12.659Z,91.9
2017-07-17T02:16:53.546Z,91.19
2017-07-17T02:17:34.424Z,91.9
2017-07-17T02:18:15.319Z,91.13
2017-07-17T02:18:56.219Z,91.04
2017-07-17T02:19:37.110Z,91.13
2017-07-17T02:20:17.996Z,91.52
2017-07-17T02:20:58.887Z,91.71
2017-07-17T02:21:39.770Z,91.52
2017-07-17T02:22:20.665Z,91.42
2017-07-17T02:23:01.570Z,91.81
2017-07-17T02:23:42.451Z,91.52
2017-07-17T02:24:23.358Z,91.19
2017-07-17T02:25:04.223Z,91.66
2017-07-17T02:25:45.109Z,91.71
2017-07-17T02:26:26.013Z,91.57
2017-07-17T02:27:06.905Z,92.14
2017-07-17T02:27:47.791Z,92.14
2017-07-17T02:28:28.689Z,92.72
2017-07-17T02:29:09.573Z,92.53
2017-07-17T02:29:50.459Z,92.82
2017-07-17T02:30:31.344Z,92.43
2017-07-17T02:31:12.232Z,92.82
2017-07-17T02:31:53.127Z,92.43
2017-07-17T02:32:34.013Z,92.82
2017-07-17T02:33:14.908Z,92.72
2017-07-17T02:33:55.799Z,92
2017-07-17T02:34:36.694Z,92.53
2017-07-17T02:35:17.587Z,92.82
2017-07-17T02:35:58.481Z,92.63
2017-07-17T02:36:39.373Z,92.72
2017-07-17T02:37:20.266Z,92.72
2017-07-17T02:38:01.161Z,92.82
2017-07-17T02:38:42.050Z,93.1
2017-07-17T02:39:22.961Z,93.1
2017-07-17T02:40:03.841Z,93.1
2017-07-17T02:40:44.721Z,93.2
2017-07-17T02:41:25.615Z,92.91
2017-07-17T02:42:06.498Z,93.1
2017-07-17T02:42:47.382Z,92.91
2017-07-17T02:43:28.270Z,92.91
2017-07-17T02:44:09.163Z,93.2
2017-07-17T02:44:50.054Z,93.1
2017-07-17T02:45:30.997Z,93.1
2017-07-17T02:46:11.816Z,92.72
2017-07-17T02:46:52.706Z,92.82
2017-07-17T02:47:33.587Z,92.63
2017-07-17T02:48:14.479Z,92.53
2017-07-17T02:48:55.371Z,93.49
2017-07-17T02:49:36.262Z,93.39
2017-07-17T02:50:17.137Z,93.87
2017-07-17T02:50:58.027Z,93.1
2017-07-17T02:51:38.932Z,93.59
2017-07-17T02:52:19.818Z,93.49
2017-07-17T02:53:00.720Z,92.91
2017-07-17T02:53:41.632Z,93.1
2017-07-17T02:54:22.521Z,93.2
2017-07-17T02:55:03.410Z,93.97
2017-07-17T02:55:44.298Z,93.59
2017-07-17T02:56:25.198Z,93.87
2017-07-17T02:57:06.097Z,93.97
2017-07-17T02:57:46.985Z,94.45
2017-07-17T02:58:27.877Z,93.97
2017-07-17T02:59:08.759Z,93.87
2017-07-17T02:59:49.658Z,93.2
2017-07-17T03:01:49.425Z,93.3
2017-07-17T03:02:30.314Z,93.2
2017-07-17T03:03:11.207Z,92.72
2017-07-17T03:03:52.105Z,92.82
2017-07-17T03:04:32.994Z,92.91
2017-07-17T03:05:13.875Z,92.91
2017-07-17T03:05:54.768Z,93.1
2017-07-17T03:06:35.652Z,92.91
2017-07-17T03:07:16.545Z,93.2
2017-07-17T03:07:57.445Z,93.01
2017-07-17T03:08:38.328Z,92.72
2017-07-17T03:09:19.222Z,93.1
2017-07-17T03:10:00.104Z,92.82
2017-07-17T03:10:40.988Z,92.91
2017-07-17T03:11:21.894Z,92.91
2017-07-17T03:12:02.779Z,93.1
2017-07-17T03:12:43.670Z,93.01
2017-07-17T03:13:24.550Z,92.72
2017-07-17T03:14:05.440Z,92.43
2017-07-17T03:14:46.328Z,92.53
2017-07-17T03:15:27.226Z,92.53
2017-07-17T03:16:08.114Z,92.53
2017-07-17T03:16:48.997Z,92.72
2017-07-17T03:17:29.910Z,92.72
2017-07-17T03:18:10.811Z,92.72
2017-07-17T03:18:51.706Z,92.82
2017-07-17T03:19:32.595Z,93.1
2017-07-17T03:20:13.488Z,92.72
2017-07-17T03:20:54.380Z,92.72
2017-07-17T03:21:35.276Z,92.91
2017-07-17T03:22:16.176Z,93.01
2017-07-17T03:22:57.044Z,93.01
2017-07-17T03:23:37.937Z,93.39
2017-07-17T03:24:18.836Z,93.1
2017-07-17T03:24:59.731Z,93.01
2017-07-17T03:25:40.667Z,93.01
2017-07-17T03:26:21.540Z,92.86
2017-07-17T03:27:02.429Z,93.77
2017-07-17T03:27:43.314Z,93.97
2017-07-17T03:28:24.203Z,93.1
2017-07-17T03:29:05.096Z,94.07
2017-07-17T03:29:45.989Z,93.77
2017-07-17T03:30:26.872Z,93.1
2017-07-17T03:31:07.759Z,92.77
2017-07-17T03:31:48.651Z,92.33
2017-07-17T03:32:29.542Z,93.01
2017-07-17T03:33:10.421Z,93.82
2017-07-17T03:33:51.328Z,94.16
2017-07-17T03:34:32.217Z,93.87
2017-07-17T03:35:13.106Z,93.77
2017-07-17T03:35:53.991Z,94.26
2017-07-17T03:36:34.890Z,94.12
2017-07-17T03:37:15.771Z,93.82
2017-07-17T03:37:56.691Z,94.31
2017-07-17T03:38:37.578Z,94.31
2017-07-17T03:39:18.500Z,93.25
2017-07-17T03:39:59.390Z,93.44
2017-07-17T03:40:40.278Z,93.92
2017-07-17T03:41:21.166Z,93.92
2017-07-17T03:42:02.067Z,93.35
2017-07-17T03:42:42.951Z,93.73
2017-07-17T03:43:23.833Z,93.63
2017-07-17T03:44:04.723Z,93.92
2017-07-17T03:44:45.622Z,93.63
2017-07-17T03:45:26.509Z,94.21
2017-07-17T03:46:07.402Z,94.21
2017-07-17T03:46:48.292Z,93.63
2017-07-17T03:47:29.178Z,93.82
2017-07-17T03:48:10.074Z,93.63
2017-07-17T03:48:50.952Z,93.63
2017-07-17T03:49:31.838Z,93.82
2017-07-17T03:50:12.730Z,93.54
2017-07-17T03:50:53.617Z,93.73
2017-07-17T03:51:34.512Z,94.02
2017-07-17T03:52:15.407Z,93.01
2017-07-17T03:52:56.307Z,93.73
2017-07-17T03:53:37.188Z,93.63
2017-07-17T03:54:18.100Z,93.63
2017-07-17T03:54:58.963Z,93.63
2017-07-17T03:55:39.856Z,93.82
2017-07-17T03:56:20.741Z,93.78
2017-07-17T03:57:01.630Z,93.92
2017-07-17T03:57:42.518Z,94.31
2017-07-17T03:58:23.401Z,93.63
2017-07-17T03:59:04.298Z,93.78
2017-07-17T03:59:45.193Z,94.26
2017-07-17T04:00:26.070Z,94.12
2017-07-17T04:01:06.951Z,94.31
2017-07-17T04:01:47.839Z,93.88
2017-07-17T04:02:28.731Z,94.02
2017-07-17T04:03:09.622Z,93.97
2017-07-17T04:03:50.525Z,93.59
2017-07-17T04:04:31.402Z,94.02
2017-07-17T04:05:12.287Z,94.31
2017-07-17T04:05:53.179Z,94.21
2017-07-17T04:06:34.071Z,93.82
2017-07-17T04:07:14.982Z,94.02
2017-07-17T04:07:55.872Z,94.02
2017-07-17T04:08:36.760Z,94.07
2017-07-17T04:09:17.636Z,94.74
2017-07-17T04:09:58.569Z,94.59
2017-07-17T04:10:39.422Z,94.98
2017-07-17T04:11:20.302Z,94.59
2017-07-17T04:12:01.180Z,94.69
2017-07-17T04:12:42.066Z,94.98
2017-07-17T04:13:22.997Z,94.79
2017-07-17T04:14:03.869Z,94.98
2017-07-17T04:14:44.759Z,94.49
2017-07-17T04:15:25.648Z,94.45
2017-07-17T04:16:06.524Z,94.59
2017-07-17T04:16:47.400Z,94.26
2017-07-17T04:17:28.293Z,94.54
2017-07-17T04:18:09.199Z,94.49
2017-07-17T04:18:50.083Z,94.64
2017-07-17T04:19:30.966Z,94.64
2017-07-17T04:20:11.871Z,94.64
2017-07-17T04:20:52.738Z,94.93
2017-07-17T04:21:33.627Z,94.64
2017-07-17T04:22:14.520Z,95.31
2017-07-17T04:22:55.402Z,94.84
2017-07-17T04:23:36.336Z,95.31
2017-07-17T04:24:17.230Z,94.54
2017-07-17T04:24:58.120Z,95.12
2017-07-17T04:25:39.028Z,94.84
2017-07-17T04:26:19.908Z,95.31
2017-07-17T04:27:00.804Z,95.7
2017-07-17T04:27:41.701Z,95.89
2017-07-17T04:28:22.584Z,95.79
2017-07-17T04:29:03.476Z,95.12
2017-07-17T04:29:44.377Z,94.84
2017-07-17T04:30:25.262Z,95.75
2017-07-17T04:31:06.159Z,95.51
2017-07-17T04:31:47.050Z,95.94
2017-07-17T04:32:27.935Z,95.94
2017-07-17T04:33:08.811Z,95.03
2017-07-17T04:33:49.697Z,95.65
2017-07-17T04:34:30.601Z,94.64
2017-07-17T04:35:11.488Z,94.74
2017-07-17T04:35:52.377Z,94.93
2017-07-17T04:36:33.267Z,94.64
2017-07-17T04:37:14.151Z,95.41
2017-07-17T04:37:55.059Z,95.12
2017-07-17T04:38:35.937Z,95.6
2017-07-17T04:39:16.824Z,95.51
2017-07-17T04:39:57.717Z,95.89
2017-07-17T04:40:38.617Z,95.7
2017-07-17T04:41:19.502Z,95.51
2017-07-17T04:42:00.383Z,96.08
2017-07-17T04:42:41.284Z,95.51
2017-07-17T04:43:22.176Z,96.08
2017-07-17T04:44:03.052Z,95.98
2017-07-17T04:44:43.946Z,96.18
2017-07-17T04:45:24.853Z,95.41
2017-07-17T04:46:05.748Z,95.7
2017-07-17T04:46:46.640Z,95.7
2017-07-17T04:47:27.526Z,95.41
2017-07-17T04:48:08.424Z,95.51
2017-07-17T04:48:49.315Z,95.98
2017-07-17T04:49:30.199Z,95.98
2017-07-17T04:50:11.095Z,95.98
2017-07-17T04:50:51.981Z,95.79
2017-07-17T04:51:32.878Z,95.7
2017-07-17T04:52:13.773Z,96.27
2017-07-17T04:52:54.666Z,95.89
2017-07-17T04:53:35.560Z,95.31
2017-07-17T04:54:16.454Z,96.18
2017-07-17T04:54:57.350Z,95.89
2017-07-17T04:55:38.237Z,96.27
2017-07-17T04:56:19.130Z,96.27
2017-07-17T04:57:00.016Z,95.41
2017-07-17T04:57:40.903Z,95.51
2017-07-17T04:58:21.802Z,96.18
2017-07-17T04:59:02.691Z,96.18
2017-07-17T04:59:43.582Z,95.7
2017-07-17T05:00:24.475Z,96.08
2017-07-17T05:01:05.367Z,95.98
2017-07-17T05:01:46.262Z,96.08
2017-07-17T05:02:27.148Z,96.27
2017-07-17T05:03:08.095Z,95.89
2017-07-17T05:03:48.990Z,95.6
2017-07-17T05:04:29.875Z,95.6
2017-07-17T05:05:10.758Z,95.6
2017-07-17T05:05:51.644Z,95.7
2017-07-17T05:06:32.534Z,95.79
2017-07-17T05:07:13.424Z,95.7
2017-07-17T05:07:54.312Z,95.98
2017-07-17T05:08:35.213Z,95.98
2017-07-17T05:09:16.102Z,96.08
2017-07-17T05:09:57.003Z,96.18
2017-07-17T05:10:37.895Z,96.27
2017-07-17T05:11:18.782Z,96.27
2017-07-17T05:11:59.670Z,96.18
2017-07-17T05:12:40.566Z,96.18
2017-07-17T05:13:21.452Z,96.27
2017-07-17T05:14:02.344Z,96.89
2017-07-17T05:14:43.231Z,96.7
2017-07-17T05:15:24.113Z,96.7
2017-07-17T05:16:05.002Z,96.56
2017-07-17T05:16:45.910Z,96.61
2017-07-17T05:17:26.821Z,96.22
2017-07-17T05:18:07.691Z,96.7
2017-07-17T05:18:48.562Z,96.42
2017-07-17T05:19:29.457Z,96.32
2017-07-17T05:20:10.365Z,96.42
2017-07-17T05:20:51.256Z,96.8
2017-07-17T05:21:32.146Z,96.32
2017-07-17T05:22:13.032Z,96.22
2017-07-17T05:22:53.924Z,96.8
2017-07-17T05:23:34.812Z,96.61
2017-07-17T05:24:15.699Z,96.89
2017-07-17T05:24:56.589Z,96.8
2017-07-17T05:25:37.480Z,96.22
2017-07-17T05:26:18.380Z,96.13
2017-07-17T05:26:59.251Z,96.22
2017-07-17T05:27:40.160Z,96.18
2017-07-17T05:28:21.031Z,96.22
2017-07-17T05:29:01.923Z,96.32
2017-07-17T05:29:42.813Z,96.32
2017-07-17T05:30:23.700Z,96.51
2017-07-17T05:31:04.601Z,96.42
2017-07-17T05:31:45.484Z,96.03
2017-07-17T05:32:26.367Z,96.51
2017-07-17T05:33:07.255Z,96.22
2017-07-17T05:33:48.148Z,96.42
2017-07-17T05:34:29.035Z,96.51
2017-07-17T05:35:09.931Z,96.13
2017-07-17T05:35:50.836Z,96.89
2017-07-17T05:36:31.728Z,96.7
2017-07-17T05:37:12.636Z,96.42
2017-07-17T05:37:53.517Z,96.42
2017-07-17T05:38:34.398Z,96.32
2017-07-17T05:39:15.285Z,96.8
2017-07-17T05:39:56.175Z,96.32
2017-07-17T05:40:37.058Z,96.32
2017-07-17T05:41:17.947Z,96.32
2017-07-17T05:41:58.824Z,95.94
2017-07-17T05:42:39.732Z,96.42
2017-07-17T05:43:20.626Z,96.7
2017-07-17T05:44:01.516Z,96.99
2017-07-17T05:44:42.416Z,96.51
2017-07-17T05:45:23.305Z,96.99
2017-07-17T05:46:04.176Z,96.8
2017-07-17T05:46:45.059Z,96.32
2017-07-17T05:47:25.949Z,96.42
2017-07-17T05:48:06.839Z,96.42
2017-07-17T05:48:47.723Z,96.7
2017-07-17T05:49:28.606Z,96.32
2017-07-17T05:50:09.499Z,96.47
2017-07-17T05:50:50.396Z,96.51
2017-07-17T05:51:31.284Z,96.94
2017-07-17T05:52:12.173Z,96.08
2017-07-17T05:52:53.059Z,96.85
2017-07-17T05:53:33.977Z,96.47
2017-07-17T05:54:14.888Z,96.03
2017-07-17T05:54:55.787Z,95.98
2017-07-17T05:55:36.680Z,95.94
2017-07-17T05:56:17.570Z,95.94
2017-07-17T05:58:16.705Z,95.98
2017-07-17T05:58:57.592Z,95.89
2017-07-17T05:59:38.481Z,95.7
2017-07-17T06:00:19.369Z,95.79
2017-07-17T06:01:00.259Z,96.56
2017-07-17T06:01:41.166Z,95.79
2017-07-17T06:02:22.054Z,96.18
2017-07-17T06:03:02.955Z,96.27
2017-07-17T06:03:43.831Z,96.27
2017-07-17T06:04:24.715Z,95.98
2017-07-17T06:05:05.619Z,96.47
2017-07-17T06:05:46.506Z,96.18
2017-07-17T06:06:27.392Z,96.22
2017-07-17T06:07:08.291Z,96.32
2017-07-17T06:07:49.180Z,96.22
2017-07-17T06:08:30.067Z,96.32
2017-07-17T06:09:10.950Z,95.89
2017-07-17T06:09:51.823Z,95.94
2017-07-17T06:10:32.715Z,95.7
2017-07-17T06:11:13.607Z,95.6
2017-07-17T06:11:54.506Z,94.98
2017-07-17T06:12:35.391Z,96.03
2017-07-17T06:13:16.277Z,95.17
2017-07-17T06:13:57.164Z,95.26
2017-07-17T06:14:38.067Z,95.79
2017-07-17T06:15:18.958Z,95.12
2017-07-17T06:15:59.861Z,95.12
2017-07-17T06:16:40.742Z,94.93
2017-07-17T06:17:21.634Z,95.03
2017-07-17T06:18:02.531Z,95.79
2017-07-17T06:18:43.419Z,95.12
2017-07-17T06:19:24.322Z,94.64
2017-07-17T06:20:05.204Z,95.21
2017-07-17T06:20:46.090Z,95.12
2017-07-17T06:21:26.984Z,94.93
2017-07-17T06:22:07.885Z,95.45
2017-07-17T06:22:48.775Z,95.45
2017-07-17T06:23:29.669Z,95.36
2017-07-17T06:24:10.565Z,95.17
2017-07-17T06:24:51.451Z,95.26
2017-07-17T06:25:32.352Z,95.55
2017-07-17T06:26:13.242Z,95.07
2017-07-17T06:26:54.138Z,94.88
2017-07-17T06:27:35.029Z,95.03
2017-07-17T06:28:15.914Z,95.31
2017-07-17T06:28:56.804Z,95.65
2017-07-17T06:29:37.689Z,95.55
2017-07-17T06:30:18.579Z,95.26
2017-07-17T06:30:59.477Z,94.69
2017-07-17T06:31:40.394Z,95.45
2017-07-17T06:32:21.278Z,95.17
2017-07-17T06:33:02.156Z,95.36
2017-07-17T06:33:43.062Z,95.55
2017-07-17T06:34:23.940Z,95.07
2017-07-17T06:35:04.833Z,95.21
2017-07-17T06:35:45.731Z,95.41
2017-07-17T06:36:26.615Z,95.79
2017-07-17T06:37:07.517Z,95.55
2017-07-17T06:37:48.405Z,95.41
2017-07-17T06:38:29.297Z,95.55
2017-07-17T06:39:10.200Z,95.55
2017-07-17T06:39:51.087Z,96.42
2017-07-17T06:40:31.987Z,96.13
2017-07-17T06:41:12.883Z,95.65
2017-07-17T06:41:53.783Z,95.79
2017-07-17T06:42:34.657Z,95.98
2017-07-17T06:43:15.546Z,95.79
2017-07-17T06:43:56.441Z,95.94
2017-07-17T06:44:37.336Z,95.07
2017-07-17T06:45:18.227Z,94.93
2017-07-17T06:45:59.117Z,93.63
2017-07-17T06:46:40.014Z,92.67
2017-07-17T06:47:20.908Z,91.6
2017-07-17T06:48:01.800Z,91.03
2017-07-17T06:48:42.692Z,90.2
2017-07-17T06:49:23.615Z,89.82
2017-07-17T06:50:04.524Z,89.39
2017-07-17T06:50:45.416Z,88.08
2017-07-17T06:51:26.309Z,88.08
2017-07-17T06:52:07.202Z,88.04
2017-07-17T06:52:48.094Z,88.17
2017-07-17T06:53:28.985Z,87.12
2017-07-17T06:54:09.881Z,88.04
2017-07-17T06:54:50.774Z,88.57
2017-07-17T06:55:31.665Z,88.42
2017-07-17T06:56:12.571Z,88.76
2017-07-17T06:56:53.470Z,88.47
2017-07-17T06:57:34.357Z,89.2
2017-07-17T06:58:15.245Z,89.49
2017-07-17T06:58:56.154Z,89.1
2017-07-17T06:59:37.107Z,88.71
2017-07-17T07:00:17.944Z,88.32
2017-07-17T07:00:58.836Z,87.12
2017-07-17T07:01:39.733Z,85.47
2017-07-17T07:02:20.619Z,84.9
2017-07-17T07:03:01.514Z,85.81
2017-07-17T07:03:42.428Z,83.59
2017-07-17T07:04:23.324Z,81.9
2017-07-17T07:05:04.220Z,82.18
2017-07-17T07:05:45.120Z,80.68
2017-07-17T07:06:26.023Z,80.49
2017-07-17T07:07:06.932Z,79.99
2017-07-17T07:07:47.834Z,76.01
2017-07-17T07:08:28.732Z,73.04
2017-07-17T07:09:09.626Z,71.75
2017-07-17T07:09:50.524Z,72.72
2017-07-17T07:10:31.418Z,73.61
2017-07-17T07:11:12.390Z,73.96
2017-07-17T07:11:53.299Z,73.8
2017-07-17T07:12:34.204Z,73.03
2017-07-17T07:13:15.110Z,72.9
2017-07-17T07:13:56.022Z,74.12
2017-07-17T07:14:36.919Z,74.25
2017-07-17T07:15:17.833Z,73.32
2017-07-17T07:15:58.724Z,70.17
2017-07-17T07:16:39.632Z,70.32
2017-07-17T07:17:20.538Z,71.17
2017-07-17T07:18:01.435Z,70.72
2017-07-17T07:20:01.228Z,72
2017-07-17T07:20:42.175Z,70.81
2017-07-17T07:21:23.069Z,71
2017-07-17T07:22:03.984Z,72.42
2017-07-17T07:22:44.897Z,70.04
2017-07-17T07:23:25.806Z,70.9
2017-07-17T07:24:06.707Z,72.22
2017-07-17T07:24:47.630Z,74.02
2017-07-17T07:25:28.534Z,72.9
2017-07-17T07:26:09.411Z,71.2
2017-07-17T07:26:50.295Z,71.45
2017-07-17T07:27:31.205Z,72.16
2017-07-17T07:28:12.106Z,71.48
2017-07-17T07:28:53.055Z,71.97
2017-07-17T07:29:33.907Z,71.97
2017-07-17T07:30:14.810Z,71.78
2017-07-17T07:30:55.719Z,71.68
2017-07-17T07:31:36.627Z,72.52
2017-07-17T07:32:17.523Z,77.42
2017-07-17T07:32:58.425Z,79.81
2017-07-17T07:33:39.339Z,80.68
2017-07-17T07:34:20.219Z,79.98
2017-07-17T07:35:01.144Z,78.92
2017-07-17T07:35:42.023Z,78.83
2017-07-17T07:36:22.963Z,78.34
2017-07-17T07:37:03.881Z,79.11
2017-07-17T07:37:44.778Z,77.9
2017-07-17T07:38:25.696Z,75.93
2017-07-17T07:39:06.602Z,75.43
2017-07-17T07:39:47.499Z,75.3
2017-07-17T07:40:28.386Z,76.03
2017-07-17T07:41:09.296Z,77.92
2017-07-17T07:41:50.187Z,79.17
2017-07-17T07:42:31.087Z,79.52
2017-07-17T07:43:11.978Z,79.66
2017-07-17T07:43:52.888Z,78.15
2017-07-17T07:44:33.782Z,77
2017-07-17T07:45:14.685Z,78.19
2017-07-17T07:45:55.587Z,75.76
2017-07-17T07:46:36.480Z,73.71
2017-07-17T07:47:17.387Z,71.26
2017-07-17T07:47:58.281Z,70.78
2017-07-17T07:48:39.180Z,72.77
2017-07-17T07:49:20.068Z,75.07
2017-07-17T07:50:01.001Z,79.23
2017-07-17T07:50:41.905Z,80.96
2017-07-17T07:51:22.794Z,80.96
2017-07-17T07:52:03.700Z,80.29
2017-07-17T07:52:44.685Z,79.81
2017-07-17T07:53:25.584Z,80.44
2017-07-17T07:54:06.479Z,81.06
2017-07-17T07:54:47.394Z,81.16
2017-07-17T07:55:28.291Z,81.12
2017-07-17T07:56:09.185Z,82.17
2017-07-17T07:56:50.055Z,82.9
2017-07-17T07:57:30.969Z,83.19
2017-07-17T07:58:11.874Z,81.88
2017-07-17T07:58:52.783Z,81.7
2017-07-17T07:59:33.684Z,81.88
2017-07-17T08:00:14.576Z,82.08
2017-07-17T08:00:55.464Z,80.14
2017-07-17T08:01:36.362Z,78.06
2017-07-17T08:02:17.256Z,76.51
2017-07-17T08:02:58.163Z,76.03
2017-07-17T08:03:39.061Z,76.32
2017-07-17T08:04:19.958Z,75.14
2017-07-17T08:05:00.855Z,73.6
2017-07-17T08:05:41.767Z,72.58
2017-07-17T08:06:22.648Z,71.8
2017-07-17T08:07:03.542Z,71.06
2017-07-17T08:07:44.487Z,68.98
2017-07-17T08:08:25.408Z,67.88
2017-07-17T08:09:06.281Z,72.25
2017-07-17T08:09:47.192Z,72.28
2017-07-17T08:10:28.098Z,73.24
2017-07-17T08:11:08.991Z,75.74
2017-07-17T08:11:49.899Z,77.63
2017-07-17T08:12:30.793Z,79.13
2017-07-17T08:13:11.696Z,78.88
2017-07-17T08:13:52.605Z,78.11
2017-07-17T08:14:33.497Z,79.13
2017-07-17T08:15:14.402Z,79.13
2017-07-17T08:15:55.302Z,79.17
2017-07-17T08:16:36.211Z,77.83
2017-07-17T08:17:17.114Z,77.88
2017-07-17T08:17:58.010Z,78.36
2017-07-17T08:18:38.914Z,77.53
2017-07-17T08:19:19.802Z,77.59
2017-07-17T08:20:00.708Z,77.34
2017-07-17T08:20:41.608Z,75.99
2017-07-17T08:21:22.499Z,75.45
2017-07-17T08:22:03.432Z,73.37
2017-07-17T08:22:44.357Z,72.83
2017-07-17T08:23:25.252Z,71.96
2017-07-17T08:24:06.157Z,71.67
2017-07-17T08:24:47.077Z,70.13
2017-07-17T08:25:27.987Z,69.84
2017-07-17T08:26:08.887Z,69.58
2017-07-17T08:26:49.796Z,68.46
2017-07-17T08:27:30.702Z,67.2
2017-07-17T08:28:11.616Z,67.4
2017-07-17T08:28:52.525Z,66.3
2017-07-17T08:29:33.466Z,68.49
2017-07-17T08:30:14.328Z,69.8
2017-07-17T08:30:55.228Z,70.76
2017-07-17T08:31:36.131Z,71.38
2017-07-17T08:32:17.073Z,68.81
2017-07-17T08:32:57.993Z,69.26
2017-07-17T08:33:38.885Z,70.54
2017-07-17T08:34:19.797Z,70.86
2017-07-17T08:35:00.708Z,70.48
2017-07-17T08:35:41.614Z,69.68
2017-07-17T08:36:22.519Z,69.55
2017-07-17T08:37:03.398Z,70.76
2017-07-17T08:37:44.305Z,71.92
2017-07-17T08:38:25.208Z,72.79
2017-07-17T08:39:06.116Z,71.92
2017-07-17T08:39:47.019Z,71.28
2017-07-17T08:40:27.922Z,70.67
2017-07-17T08:41:08.836Z,69.35
2017-07-17T08:41:49.733Z,69.8
2017-07-17T08:42:30.630Z,70.15
2017-07-17T08:43:11.529Z,70.31
2017-07-17T08:43:52.444Z,70.31
2017-07-17T08:44:33.355Z,69.87
2017-07-17T08:45:14.259Z,69.48
2017-07-17T08:45:55.162Z,68.35
2017-07-17T08:46:36.063Z,67.17
2017-07-17T08:47:16.960Z,62.73
2017-07-17T08:47:57.859Z,60.24
2017-07-17T08:48:38.748Z,59.53
2017-07-17T08:49:19.654Z,57.69
2017-07-17T08:50:00.554Z,58.7
2017-07-17T08:50:41.458Z,58.89
2017-07-17T08:51:22.363Z,60.79
2017-07-17T08:52:03.265Z,60.27
2017-07-17T08:52:44.170Z,59.56
2017-07-17T08:53:25.071Z,61.66
2017-07-17T08:54:05.980Z,63.15